»·PEaware :: ASA1750 KSFO-KLAX

ASA1750 :: KSFO-KLAX

FLIGHT INFORMATION

Flight Status: Arrived
Operator:
Alaska Airlines
More flights by this operator :: More flights under this callsign
Pilot: Jacob H. (10561)
Aircraft: DEHAVILLAND DASH 8 200
(DH8B)
More flights by this aircraft type
Origin: KSFO San Francisco Intl
United States
Destination: KLAX Los Angeles Intl
United States
More flights between these airports :: More routes between these airports
Route: EUGEN1 SNS J6 AVE EHF KIMMO3
File this flight plan on PilotEdge
Remarks:
Altitude:
(Current/Filed)
25,000ft
Speed:
(Current/Filed)
300kts
Departed: 05-Jul-16 01:28 PM
Arrived: 05-Jul-16 02:49 PM
Distance/Time
Traveled:
293nm/1:21
Distance/Time
To Go:
Arrived

Flight Plot

Page will automatically refresh every two minutes.


Map Options




Map Legend


Flown Route
Filed Route
Departure Airport
Arrival Airport
Navaid (VOR, NDB)
Fix

Horizontal Profiles

Position Reports

Time Latitude Longitude Heading Altitude Ground
Speed
05-Jul-16 12:53 37.617342 -122.391801 29 30ft 0kts
05-Jul-16 12:54 37.617342 -122.391801 29 30ft 0kts
05-Jul-16 12:55 37.617342 -122.391801 29 30ft 0kts
05-Jul-16 12:56 37.617342 -122.391801 29 30ft 0kts
05-Jul-16 12:57 37.612347 -122.386445 113 30ft 0kts
05-Jul-16 12:58 37.612347 -122.386445 113 30ft 0kts
05-Jul-16 12:59 37.612347 -122.386445 113 30ft 0kts
05-Jul-16 13:00 37.612347 -122.386445 113 30ft 0kts
05-Jul-16 13:01 37.612347 -122.386445 113 30ft 0kts
05-Jul-16 13:02 37.612347 -122.386445 113 30ft 0kts
05-Jul-16 13:03 37.612347 -122.386445 113 30ft 0kts
05-Jul-16 13:04 37.612347 -122.386445 113 30ft 0kts
05-Jul-16 13:05 37.612347 -122.386445 113 30ft 0kts
05-Jul-16 13:06 37.612347 -122.386445 113 30ft 0kts
05-Jul-16 13:07 37.612347 -122.386445 113 30ft 0kts
05-Jul-16 13:08 37.612347 -122.386445 113 30ft 0kts
05-Jul-16 13:09 37.612347 -122.386445 113 30ft 0kts
05-Jul-16 13:10 37.612347 -122.386445 113 30ft 0kts
05-Jul-16 13:11 37.612347 -122.386445 113 30ft 0kts
05-Jul-16 13:12 37.612347 -122.386445 113 30ft 0kts
05-Jul-16 13:13 37.612347 -122.386445 113 30ft 0kts
05-Jul-16 13:14 37.612347 -122.386445 113 30ft 0kts
05-Jul-16 13:15 37.612347 -122.386445 113 30ft 0kts
05-Jul-16 13:16 37.612481 -122.386718 135 30ft 3kts
05-Jul-16 13:17 37.612788 -122.386821 206 30ft 0kts
05-Jul-16 13:18 37.611361 -122.386308 116 29ft 2kts
05-Jul-16 13:19 37.610671 -122.384711 121 30ft 0kts
05-Jul-16 13:20 37.609625 -122.383953 150 30ft 8kts
05-Jul-16 13:21 37.609152 -122.383633 155 30ft 0kts
05-Jul-16 13:22 37.608970 -122.383510 145 30ft 0kts
05-Jul-16 13:23 37.608935 -122.382247 26 28ft 12kts
05-Jul-16 13:24 37.633254 -122.364908 8 812ft 151kts
05-Jul-16 13:25 37.660058 -122.386375 250 2893ft 151kts
05-Jul-16 13:26 37.617680 -122.404815 199 5382ft 174kts
05-Jul-16 13:27 37.572288 -122.424330 202 8011ft 177kts
05-Jul-16 13:28 37.528937 -122.445996 202 10476ft 180kts
05-Jul-16 13:29 37.484129 -122.469109 202 12904ft 185kts
05-Jul-16 13:30 37.436319 -122.493950 202 15246ft 191kts
05-Jul-16 13:31 37.387215 -122.519485 202 17297ft 198kts
05-Jul-16 13:32 37.336044 -122.546073 202 19123ft 204kts
05-Jul-16 13:33 37.283907 -122.573126 202 20730ft 209kts
05-Jul-16 13:34 37.231165 -122.565324 147 21955ft 214kts
05-Jul-16 13:35 37.181963 -122.522822 145 23277ft 219kts
05-Jul-16 13:36 37.132379 -122.478676 144 24438ft 223kts
05-Jul-16 13:37 37.081000 -122.432834 144 25162ft 244kts
05-Jul-16 13:38 37.021094 -122.379519 144 25162ft 289kts
05-Jul-16 13:39 36.953113 -122.319084 144 25147ft 320kts
05-Jul-16 13:40 36.879680 -122.253948 144 25131ft 334kts
05-Jul-16 13:41 36.804509 -122.187421 144 25127ft 335kts
05-Jul-16 13:42 36.744163 -122.106873 105 25147ft 330kts
05-Jul-16 13:43 36.724769 -121.995643 101 25126ft 332kts
05-Jul-16 13:44 36.707284 -121.882699 100 25111ft 336kts
05-Jul-16 13:45 36.689564 -121.768127 100 25104ft 337kts
05-Jul-16 13:46 36.671934 -121.654837 100 25100ft 337kts
05-Jul-16 13:47 36.619171 -121.565521 143 25104ft 336kts
05-Jul-16 13:48 36.543515 -121.497870 144 25102ft 337kts
05-Jul-16 13:49 36.467203 -121.431016 144 25100ft 337kts
05-Jul-16 13:50 36.390454 -121.364007 144 25100ft 338kts
05-Jul-16 13:51 36.314731 -121.297612 145 25100ft 338kts
05-Jul-16 13:52 36.238186 -121.231043 145 25100ft 338kts
05-Jul-16 13:53 36.161086 -121.164219 145 25094ft 339kts
05-Jul-16 13:54 36.084827 -121.098286 145 25065ft 340kts
05-Jul-16 13:55 36.007892 -121.031931 145 25047ft 340kts
05-Jul-16 13:56 35.959098 -120.937760 112 25047ft 338kts
05-Jul-16 13:57 35.924087 -120.830015 111 25045ft 339kts
05-Jul-16 13:58 35.889494 -120.722462 111 25048ft 341kts
05-Jul-16 13:59 35.854436 -120.613795 111 25047ft 347kts
05-Jul-16 14:00 35.818712 -120.503464 111 25046ft 351kts
05-Jul-16 14:01 35.782851 -120.393125 111 25046ft 353kts
05-Jul-16 14:02 35.747828 -120.284914 112 25046ft 354kts
05-Jul-16 14:03 35.711101 -120.172479 112 25043ft 355kts
05-Jul-16 14:04 35.674026 -120.059648 112 25045ft 355kts
05-Jul-16 14:05 35.641388 -119.945687 103 25039ft 353kts
05-Jul-16 14:06 35.619747 -119.828263 102 25015ft 351kts
05-Jul-16 14:07 35.598572 -119.712112 102 24999ft 350kts
05-Jul-16 14:08 35.577341 -119.596239 102 24999ft 349kts
05-Jul-16 14:09 35.555919 -119.479996 102 24999ft 348kts
05-Jul-16 14:10 35.534468 -119.364261 102 24999ft 348kts
05-Jul-16 14:11 35.513318 -119.249133 103 24999ft 348kts
05-Jul-16 14:12 35.491680 -119.133524 103 25000ft 348kts
05-Jul-16 14:13 35.446735 -119.055135 136 25003ft 346kts
05-Jul-16 14:14 35.364650 -118.960889 137 24433ft 346kts
05-Jul-16 14:15 35.294694 -118.881520 137 24000ft 341kts
05-Jul-16 14:16 35.237272 -118.816314 137 23999ft 340kts
05-Jul-16 14:17 35.161360 -118.748894 161 23291ft 343kts
05-Jul-16 14:18 35.073095 -118.716243 163 22317ft 339kts
05-Jul-16 14:19 34.984403 -118.684575 163 21332ft 336kts
05-Jul-16 14:20 34.895142 -118.652663 163 20338ft 335kts
05-Jul-16 14:21 34.807581 -118.621418 163 19326ft 324kts
05-Jul-16 14:22 34.722464 -118.591118 163 18316ft 316kts
05-Jul-16 14:23 34.642435 -118.553228 154 17326ft 310kts
05-Jul-16 14:24 34.564933 -118.507909 154 16329ft 307kts
05-Jul-16 14:25 34.488821 -118.463422 154 15342ft 306kts
05-Jul-16 14:26 34.412927 -118.419138 154 13858ft 302kts
05-Jul-16 14:27 34.338749 -118.375926 154 11858ft 293kts
05-Jul-16 14:28 34.267764 -118.334480 154 9894ft 286kts
05-Jul-16 14:29 34.198750 -118.294234 153 8082ft 274kts
05-Jul-16 14:30 34.150252 -118.244283 113 8024ft 234kts
05-Jul-16 14:31 34.110768 -118.194161 152 8048ft 214kts
05-Jul-16 14:32 34.060278 -118.161597 152 7943ft 223kts
05-Jul-16 14:33 34.006824 -118.126898 152 6503ft 211kts
05-Jul-16 14:34 33.959861 -118.095742 152 5447ft 206kts
05-Jul-16 14:35 33.931723 -118.049661 65 3777ft 232kts
05-Jul-16 14:36 33.976474 -118.051899 296 2668ft 198kts
05-Jul-16 14:37 33.997745 -118.100032 296 2590ft 146kts
05-Jul-16 14:38 33.984326 -118.138872 234 3138ft 147kts
05-Jul-16 14:39 33.972206 -118.182471 269 2764ft 218kts
05-Jul-16 14:40 33.969131 -118.235370 261 2629ft 114kts
05-Jul-16 14:41 33.965082 -118.276677 261 2256ft 155kts
05-Jul-16 14:42 33.960150 -118.324618 260 1397ft 140kts
05-Jul-16 14:43 33.955438 -118.369670 260 667ft 139kts
05-Jul-16 14:44 33.951195 -118.411217 261 122ft 66kts
05-Jul-16 14:45 33.949397 -118.419241 236 118ft 0kts
05-Jul-16 14:46 33.948004 -118.421691 235 118ft 18kts
05-Jul-16 14:47 33.947561 -118.414738 77 120ft 48kts
05-Jul-16 14:48 33.947572 -118.408008 137 121ft 7kts

Navigation Log

Ident Type
Flight plan parsing failed, navigation log unavailable